首页
METAR-TAF:

METAR-TAF

机场 :

亞庇國際機場

亞庇, 马来西亚

纬度: 05-56N, 经度: 116-03E, 海拔: 3米

当前天气观测

该预报发布于25分钟前的01:30 UTC
风速3节,风向多变
温度 29°C
湿度 79%
气压 1012 hPa
能见度10公里或以上
少量云层高于1500英尺

METAR: WBKK 260130Z VRB03KT 9999 FEW015 29/25 Q1012 NOSIG

时间: 09:55 (01:55 UTC)

预报

该预报发布于2小时和55分钟前的23:00 UTC
预报有效从26日的 00点(UTC)到 27日的 00点(UTC)
风速6节,风向
能见度10公里或以上
少量云层高于1400英尺
成为
从 26日的 12点(UTC)到 26日的 14点(UTC)
风速5节,风向东转东南

TAF: WBKK 252300Z 2600/2700 01006KT 9999 FEW014 BECMG 2612/2614 12005KT

超过4000个机场的气象观测和天气预报(METAR&TAF报告)。

可查询的气象台以黄色和红色小点在地图上表示。

将鼠标移到小点上方,可查看气象台名称。

然后点击查看天气观测和预报。

如需切换地图:点击带黑十字的绿色按钮放大地图;点击带横线的绿色按钮缩小地图;或者点击绿色箭头查看邻近地区的地图。


METAR-TAF: